Terminal Aerodrome Forecast
Issued by NWS

Home | Current Version | Previous Version | Text Only | Print | Product List | Glossary On
Versions: 1 2 3 4 5 6 7 8 9 10 11 12 13 14 15 16 17 18 19 20 21 22 23 24 25 26 27 28 29 30 31 32 33 34 35 36 37 38 39 40 41 42 43 44 45 46 47 48 49 50
678
FTUS44 KHGX 282345 RRA
TAFLBX
TAF
KLBX 282345Z 2900/2924 14011KT P6SM BKN014 OVC023
     FM290300 16015G25KT P6SM SCT015 BKN022
     FM290900 16015G25KT P6SM VCSH SCT007 OVC015
     FM291500 15013G22KT P6SM VCTS BKN020CB OVC250
      TEMPO 2920/2924 VRB10G25KT 3SM SHRA BKN025 OVC060=

USA.gov is the U.S. government's official web portal to all federal, state and local government web resources and services.